createdAt,value
2022-09-10T00:01:59.330Z,98170.47
2022-09-10T00:04:26.955Z,98149.72
2022-09-10T00:06:57.115Z,98160.81
2022-09-10T00:09:26.736Z,98177.09
2022-09-10T00:11:55.598Z,98155.72
2022-09-10T00:14:26.640Z,98147.47
2022-09-10T00:16:55.313Z,98169.69
2022-09-10T00:19:22.220Z,98165.59
2022-09-10T00:21:50.682Z,98178.56
2022-09-10T00:24:17.353Z,98176.09
2022-09-10T00:26:43.974Z,98155.91
2022-09-10T00:29:12.844Z,98168.69
2022-09-10T00:31:39.983Z,98156.09
2022-09-10T00:34:07.328Z,98156.09
2022-09-10T00:36:39.676Z,98168.03
2022-09-10T00:39:13.045Z,98147.47
2022-09-10T00:41:41.925Z,98141.28
2022-09-10T00:44:39.473Z,98161.16
2022-09-10T00:47:12.588Z,98151.44
2022-09-10T00:49:43.158Z,98155.97
2022-09-10T00:52:10.139Z,98152.09
2022-09-10T00:54:37.260Z,98159.91
2022-09-10T00:57:12.497Z,98169.59
2022-09-10T00:59:44.550Z,98170.03
2022-09-10T01:02:12.233Z,98136.13
2022-09-10T01:04:39.572Z,98160.59
2022-09-10T01:07:09.838Z,98173.16
2022-09-10T01:09:38.444Z,98150.72
2022-09-10T01:12:33.137Z,98169.06
2022-09-10T01:15:40.995Z,98161.69
2022-09-10T01:18:34.208Z,98154.69
2022-09-10T01:21:11.146Z,98158.19
2022-09-10T01:24:06.982Z,98164.97
2022-09-10T01:26:42.279Z,98160.84
2022-09-10T01:29:31.027Z,98154.03
2022-09-10T01:32:10.625Z,98160.41
2022-09-10T01:34:44.449Z,98167.16
2022-09-10T01:37:21.547Z,98155.81
2022-09-10T01:39:51.087Z,98163.88
2022-09-10T01:42:18.642Z,98160.00
2022-09-10T01:44:50.294Z,98161.00
2022-09-10T01:47:46.008Z,98157.94
2022-09-10T01:50:21.644Z,98160.63
2022-09-10T01:52:54.645Z,98156.72
2022-09-10T01:55:53.929Z,98156.28
2022-09-10T01:58:30.352Z,98149.91
2022-09-10T02:01:32.118Z,98156.47
2022-09-10T02:04:05.081Z,98160.75
2022-09-10T02:06:36.419Z,98138.53
2022-09-10T02:09:04.332Z,98127.88
2022-09-10T02:11:32.149Z,98146.63
2022-09-10T02:14:00.522Z,98124.41
2022-09-10T02:16:34.095Z,98141.72
2022-09-10T02:19:02.448Z,98151.31
2022-09-10T02:21:29.054Z,98126.00
2022-09-10T02:24:00.498Z,98142.72
2022-09-10T02:26:27.729Z,98129.94
2022-09-10T02:28:54.584Z,98120.06
2022-09-10T02:31:21.125Z,98136.13
2022-09-10T02:33:47.694Z,98132.88
2022-09-10T02:36:14.164Z,98130.19
2022-09-10T02:38:40.648Z,98131.78
2022-09-10T02:41:09.772Z,98109.13
2022-09-10T02:43:38.125Z,98125.44
2022-09-10T02:46:08.498Z,98132.28
2022-09-10T02:48:35.080Z,98132.69
2022-09-10T02:51:02.820Z,98125.44
2022-09-10T02:53:31.687Z,98130.59
2022-09-10T02:55:58.291Z,98128.94
2022-09-10T02:58:25.069Z,98130.59
2022-09-10T03:00:51.720Z,98132.84
2022-09-10T03:03:18.253Z,98112.84
2022-09-10T03:05:44.765Z,98099.06
2022-09-10T03:08:11.319Z,98128.25
2022-09-10T03:10:38.527Z,98139.78
2022-09-10T03:13:05.056Z,98139.75
2022-09-10T03:15:31.546Z,98128.06
2022-09-10T03:17:58.350Z,98128.03
2022-09-10T03:20:25.380Z,98137.06
2022-09-10T03:22:54.129Z,98134.59
2022-09-10T03:25:22.698Z,98148.78
2022-09-10T03:27:49.511Z,98134.56
2022-09-10T03:30:16.231Z,98125.72
2022-09-10T03:32:42.748Z,98132.34
2022-09-10T03:35:10.213Z,98130.91
2022-09-10T03:37:36.720Z,98138.97
2022-09-10T03:40:04.010Z,98138.38
2022-09-10T03:42:30.547Z,98130.34
2022-09-10T03:44:57.074Z,98123.13
2022-09-10T03:47:24.002Z,98123.75
2022-09-10T03:49:50.819Z,98126.28
2022-09-10T03:52:18.062Z,98134.53
2022-09-10T03:54:45.659Z,98130.00
2022-09-10T03:57:12.256Z,98148.50
2022-09-10T03:59:41.250Z,98134.06
2022-09-10T04:02:09.317Z,98140.88
2022-09-10T04:04:38.886Z,98114.13
2022-09-10T04:07:05.514Z,98125.03
2022-09-10T04:09:32.627Z,98121.91
2022-09-10T04:11:59.951Z,98125.63
2022-09-10T04:14:27.125Z,98131.19
2022-09-10T04:16:53.656Z,98114.03
2022-09-10T04:19:20.171Z,98130.72
2022-09-10T04:21:46.688Z,98122.47
2022-09-10T04:24:13.305Z,98131.97
2022-09-10T04:26:39.913Z,98119.41
2022-09-10T04:29:09.157Z,98136.13
2022-09-10T04:31:35.780Z,98132.00
2022-09-10T04:34:02.377Z,98135.28
2022-09-10T04:36:29.163Z,98132.00
2022-09-10T04:38:55.685Z,98120.44
2022-09-10T04:41:22.222Z,98133.41
2022-09-10T04:43:49.071Z,98127.00
2022-09-10T04:46:15.602Z,98135.66
2022-09-10T04:48:42.190Z,98131.94
2022-09-10T04:51:17.151Z,98119.97
2022-09-10T04:53:45.187Z,98125.19
2022-09-10T04:56:11.884Z,98127.00
2022-09-10T04:58:41.096Z,98143.53
2022-09-10T05:01:10.364Z,98142.53
2022-09-10T05:03:37.138Z,98138.56
2022-09-10T05:06:05.175Z,98154.44
2022-09-10T05:08:31.941Z,98131.00
2022-09-10T05:10:58.801Z,98148.34
2022-09-10T05:13:25.395Z,98159.84
2022-09-10T05:15:55.155Z,98119.22
2022-09-10T05:18:21.648Z,98165.56
2022-09-10T05:20:48.154Z,98166.63
2022-09-10T05:23:14.723Z,98161.44
2022-09-10T05:25:44.129Z,98171.13
2022-09-10T05:28:11.344Z,98173.38
2022-09-10T05:30:40.171Z,98161.84
2022-09-10T05:33:06.651Z,98159.91
2022-09-10T05:35:33.389Z,98163.63
2022-09-10T05:38:03.265Z,98176.81
2022-09-10T05:40:29.821Z,98180.72
2022-09-10T05:43:00.239Z,98178.31
2022-09-10T05:45:26.841Z,98163.09
2022-09-10T05:47:53.419Z,98191.72
2022-09-10T05:50:20.141Z,98186.38
2022-09-10T05:52:46.970Z,98187.63
2022-09-10T05:55:13.756Z,98183.94
2022-09-10T05:57:42.973Z,98190.97
2022-09-10T06:00:12.802Z,98194.47
2022-09-10T06:02:42.630Z,98180.03
2022-09-10T06:05:12.765Z,98176.53
2022-09-10T06:07:42.033Z,98185.22
2022-09-10T06:10:09.541Z,98189.78
2022-09-10T06:12:36.029Z,98172.66
2022-09-10T06:15:03.712Z,98193.72
2022-09-10T06:17:30.437Z,98188.31
2022-09-10T06:19:56.936Z,98185.25
2022-09-10T06:22:23.488Z,98190.59
2022-09-10T06:24:50.688Z,98207.31
2022-09-10T06:27:17.302Z,98185.69
2022-09-10T06:29:43.855Z,98185.91
2022-09-10T06:32:10.387Z,98202.38
2022-09-10T06:34:36.927Z,98194.75
2022-09-10T06:37:06.098Z,98206.28
2022-09-10T06:39:32.633Z,98202.19
2022-09-10T06:41:59.227Z,98217.41
2022-09-10T06:44:26.331Z,98207.13
2022-09-10T06:47:39.061Z,98195.16
2022-09-10T06:49:41.152Z,98184.88
2022-09-10T06:52:07.837Z,98214.09
2022-09-10T06:54:34.606Z,98218.84
2022-09-10T06:57:01.459Z,98224.41
2022-09-10T06:59:28.003Z,98208.34
2022-09-10T07:01:55.724Z,98217.81
2022-09-10T07:04:22.351Z,98194.75
2022-09-10T07:06:49.066Z,98181.53
2022-09-10T07:09:15.938Z,98191.22
2022-09-10T07:11:42.616Z,98221.66
2022-09-10T07:14:12.970Z,98206.16
2022-09-10T07:16:44.676Z,98194.00
2022-09-10T07:19:17.386Z,98213.41
2022-09-10T07:21:44.813Z,98208.44
2022-09-10T07:24:14.548Z,98207.81
2022-09-10T07:26:41.470Z,98201.44
2022-09-10T07:29:10.305Z,98215.19
2022-09-10T07:31:38.318Z,98208.78
2022-09-10T07:34:05.190Z,98203.53
2022-09-10T07:36:32.015Z,98203.06
2022-09-10T07:39:01.754Z,98193.72
2022-09-10T07:41:30.199Z,98189.84
2022-09-10T07:43:57.687Z,98184.66
2022-09-10T07:46:25.578Z,98182.91
2022-09-10T07:48:57.635Z,98208.66
2022-09-10T07:51:25.180Z,98202.44
2022-09-10T07:53:53.589Z,98208.88
2022-09-10T07:56:20.481Z,98215.66
2022-09-10T07:58:47.255Z,98218.25
2022-09-10T08:01:13.998Z,98208.22
2022-09-10T08:03:41.553Z,98228.03
2022-09-10T08:06:12.723Z,98216.97
2022-09-10T08:08:43.275Z,98211.34
2022-09-10T08:11:12.974Z,98215.16
2022-09-10T08:13:45.450Z,98215.13
2022-09-10T08:16:15.352Z,98221.47
2022-09-10T08:18:43.648Z,98207.75
2022-09-10T08:21:10.962Z,98220.31
2022-09-10T08:23:44.369Z,98210.28
2022-09-10T08:26:10.889Z,98209.41
2022-09-10T08:28:40.318Z,98214.91
2022-09-10T08:31:09.870Z,98219.41
2022-09-10T08:33:39.507Z,98213.22
2022-09-10T08:36:08.831Z,98205.63
2022-09-10T08:38:39.852Z,98191.38
2022-09-10T08:41:38.479Z,98215.34
2022-09-10T08:44:16.215Z,98216.97
2022-09-10T08:46:48.661Z,98202.56
2022-09-10T08:49:37.136Z,98215.72
2022-09-10T08:52:20.590Z,98193.75
2022-09-10T08:54:52.571Z,98216.81
2022-09-10T08:57:33.529Z,98216.44
2022-09-10T09:00:01.920Z,98214.91
2022-09-10T09:02:49.315Z,98227.13
2022-09-10T09:05:20.088Z,98227.75
2022-09-10T09:07:48.413Z,98230.53
2022-09-10T09:10:31.389Z,98238.34
2022-09-10T09:13:23.971Z,98236.34
2022-09-10T09:16:18.303Z,98238.81
2022-09-10T09:19:17.232Z,98242.34
2022-09-10T09:21:55.148Z,98226.47
2022-09-10T09:24:39.700Z,98230.13
2022-09-10T09:27:10.357Z,98222.44
2022-09-10T09:29:56.422Z,98235.25
2022-09-10T09:32:24.166Z,98229.38
2022-09-10T09:34:57.234Z,98225.28
2022-09-10T09:37:31.327Z,98227.66
2022-09-10T09:40:09.103Z,98231.88
2022-09-10T09:42:44.505Z,98240.41
2022-09-10T09:45:39.674Z,98240.22
2022-09-10T09:48:11.545Z,98228.50
2022-09-10T09:50:42.869Z,98239.25
2022-09-10T09:53:28.994Z,98242.44
2022-09-10T09:56:01.497Z,98240.97
2022-09-10T09:58:31.103Z,98245.00
2022-09-10T10:01:03.673Z,98237.09
2022-09-10T10:03:58.951Z,98243.25
2022-09-10T10:06:34.714Z,98246.69
2022-09-10T10:09:02.874Z,98216.13
2022-09-10T10:11:49.804Z,98240.88
2022-09-10T10:14:39.488Z,98241.06
2022-09-10T10:17:30.268Z,98240.38
2022-09-10T10:19:58.968Z,98239.44
2022-09-10T10:22:27.855Z,98241.13
2022-09-10T10:24:54.920Z,98242.53
2022-09-10T10:27:31.111Z,98239.44
2022-09-10T10:30:00.577Z,98241.16
2022-09-10T10:32:47.674Z,98237.03
2022-09-10T10:35:21.774Z,98241.56
2022-09-10T10:38:03.247Z,98237.03
2022-09-10T10:40:45.949Z,98227.34
2022-09-10T10:43:12.411Z,98234.31
2022-09-10T10:45:57.618Z,98231.34
2022-09-10T10:48:43.276Z,98238.47
2022-09-10T10:51:26.064Z,98216.84
2022-09-10T10:54:20.497Z,98228.38
2022-09-10T10:57:12.616Z,98227.19
2022-09-10T11:00:14.860Z,98227.53
2022-09-10T11:03:10.581Z,98229.47
2022-09-10T11:05:45.058Z,98221.75
2022-09-10T11:08:21.458Z,98212.22
2022-09-10T11:10:56.192Z,98197.47
2022-09-10T11:13:31.944Z,98203.16
2022-09-10T11:16:24.058Z,98194.88
2022-09-10T11:18:58.877Z,98214.75
2022-09-10T11:21:43.982Z,98217.38
2022-09-10T11:24:34.412Z,98210.72
2022-09-10T11:27:17.975Z,98208.41
2022-09-10T11:29:50.005Z,98207.09
2022-09-10T11:32:31.867Z,98191.91
2022-09-10T11:35:35.647Z,98194.81
2022-09-10T11:38:18.621Z,98181.34
2022-09-10T11:40:59.112Z,98184.53
2022-09-10T11:43:33.281Z,98182.88
2022-09-10T11:46:04.710Z,98168.13
2022-09-10T11:48:41.535Z,98169.09
2022-09-10T11:51:33.768Z,98177.16
2022-09-10T11:54:03.716Z,98161.84
2022-09-10T11:56:43.368Z,98174.78
2022-09-10T11:59:35.356Z,98175.47
2022-09-10T12:02:04.819Z,98168.84
2022-09-10T12:05:07.344Z,98168.44
2022-09-10T12:07:59.972Z,98174.16
2022-09-10T12:11:21.005Z,98169.22
2022-09-10T12:13:50.115Z,98167.03
2022-09-10T12:16:46.223Z,98176.00
2022-09-10T12:19:51.081Z,98172.84
2022-09-10T12:22:31.512Z,98165.97
2022-09-10T12:25:07.328Z,98171.25
2022-09-10T12:28:07.735Z,98166.28
2022-09-10T12:30:37.765Z,98167.34
2022-09-10T12:33:13.461Z,98159.53
2022-09-10T12:35:46.468Z,98155.81
2022-09-10T12:38:48.348Z,98144.97
2022-09-10T12:41:23.905Z,98146.75
2022-09-10T12:44:00.490Z,98148.03
2022-09-10T12:46:27.402Z,98142.91
2022-09-10T12:48:55.184Z,98147.78
2022-09-10T12:51:36.583Z,98154.81
2022-09-10T12:54:24.642Z,98154.78
2022-09-10T12:57:00.404Z,98150.94
2022-09-10T12:59:58.884Z,98145.09
2022-09-10T13:02:30.525Z,98134.25
2022-09-10T13:05:21.546Z,98144.28
2022-09-10T13:07:59.327Z,98141.84
2022-09-10T13:10:28.898Z,98136.38
2022-09-10T13:13:07.309Z,98125.44
2022-09-10T13:15:39.028Z,98120.78
2022-09-10T13:18:33.917Z,98138.28
2022-09-10T13:21:23.282Z,98135.28
2022-09-10T13:23:54.382Z,98138.91
2022-09-10T13:26:34.095Z,98129.50
2022-09-10T13:29:07.967Z,98129.34
2022-09-10T13:31:39.296Z,98133.59
2022-09-10T13:34:14.722Z,98127.75
2022-09-10T13:37:19.146Z,98125.03
2022-09-10T13:39:46.180Z,98127.75
2022-09-10T13:42:37.641Z,98115.75
2022-09-10T13:45:37.789Z,98115.84
2022-09-10T13:48:23.295Z,98113.75
2022-09-10T13:50:57.668Z,98110.59
2022-09-10T13:53:27.980Z,98109.50
2022-09-10T13:56:12.348Z,98111.63
2022-09-10T13:58:48.549Z,98111.00
2022-09-10T14:01:15.947Z,98110.59
2022-09-10T14:03:44.554Z,98112.69
2022-09-10T14:06:22.129Z,98112.53
2022-09-10T14:08:57.620Z,98097.38
2022-09-10T14:11:28.188Z,98116.13
2022-09-10T14:14:13.074Z,98109.72
2022-09-10T14:16:54.541Z,98101.03
2022-09-10T14:19:23.574Z,98110.59
2022-09-10T14:21:51.747Z,98083.34
2022-09-10T14:24:30.799Z,98100.09
2022-09-10T14:27:18.755Z,98100.84
2022-09-10T14:29:46.712Z,98091.84
2022-09-10T14:32:34.137Z,98084.75
2022-09-10T14:35:38.178Z,98086.13
2022-09-10T14:38:20.284Z,98080.75
2022-09-10T14:40:47.855Z,98074.91
2022-09-10T14:43:15.877Z,98078.91
2022-09-10T14:45:49.873Z,98083.56
2022-09-10T14:48:38.525Z,98083.28
2022-09-10T14:51:11.079Z,98085.09
2022-09-10T14:53:38.594Z,98088.44
2022-09-10T14:56:16.114Z,98095.34
2022-09-10T14:58:46.298Z,98076.31
2022-09-10T15:01:12.865Z,98078.41
2022-09-10T15:03:40.780Z,98079.06
2022-09-10T15:06:10.974Z,98095.56
2022-09-10T15:08:37.504Z,98072.81
2022-09-10T15:11:06.646Z,98072.41
2022-09-10T15:13:36.244Z,98083.78
2022-09-10T15:16:03.158Z,98081.06
2022-09-10T15:18:29.701Z,98080.25
2022-09-10T15:20:56.191Z,98084.84
2022-09-10T15:23:23.111Z,98071.16
2022-09-10T15:25:51.859Z,98082.66
2022-09-10T15:28:18.905Z,98069.38
2022-09-10T15:30:47.653Z,98073.81
2022-09-10T15:33:17.830Z,98075.56
2022-09-10T15:35:44.611Z,98063.22
2022-09-10T15:38:18.462Z,98076.31
2022-09-10T15:40:49.198Z,98081.94
2022-09-10T15:43:20.050Z,98076.06
2022-09-10T15:45:47.656Z,98073.56
2022-09-10T15:48:14.567Z,98075.06
2022-09-10T15:50:43.289Z,98075.13
2022-09-10T15:53:11.992Z,98056.19
2022-09-10T15:55:39.193Z,98077.81
2022-09-10T15:58:06.144Z,98052.09
2022-09-10T16:00:34.142Z,98062.09
2022-09-10T16:03:00.933Z,98070.00
2022-09-10T16:05:28.626Z,98066.16
2022-09-10T16:07:55.179Z,98072.34
2022-09-10T16:10:21.665Z,98082.63
2022-09-10T16:12:50.751Z,98069.72
2022-09-10T16:15:17.673Z,98067.34
2022-09-10T16:17:45.374Z,98076.13
2022-09-10T16:20:12.011Z,98066.97
2022-09-10T16:22:38.527Z,98070.03
2022-09-10T16:25:08.405Z,98083.41
2022-09-10T16:27:34.968Z,98074.97
2022-09-10T16:30:01.561Z,98072.06
2022-09-10T16:32:29.396Z,98085.25
2022-09-10T16:34:55.952Z,98079.66
2022-09-10T16:37:23.426Z,98070.81
2022-09-10T16:39:50.000Z,98072.44
2022-09-10T16:42:19.830Z,98080.84
2022-09-10T16:44:46.357Z,98051.19
2022-09-10T16:47:15.374Z,98064.28
2022-09-10T16:49:44.474Z,98067.84
2022-09-10T16:52:11.993Z,98064.56
2022-09-10T16:54:40.097Z,98053.25
2022-09-10T16:57:07.483Z,98087.03
2022-09-10T16:59:35.127Z,98071.88
2022-09-10T17:02:05.430Z,98081.69
2022-09-10T17:04:35.891Z,98081.81
2022-09-10T17:07:02.410Z,98082.72
2022-09-10T17:09:31.188Z,98080.44
2022-09-10T17:12:00.626Z,98048.94
2022-09-10T17:14:27.116Z,98082.16
2022-09-10T17:16:53.647Z,98049.44
2022-09-10T17:19:26.272Z,98083.00
2022-09-10T17:21:55.555Z,98078.81
2022-09-10T17:24:26.650Z,98076.16
2022-09-10T17:26:55.056Z,98072.19
2022-09-10T17:29:24.162Z,98091.44
2022-09-10T17:31:55.528Z,98094.47
2022-09-10T17:34:24.400Z,98087.41
2022-09-10T17:36:51.640Z,98061.53
2022-09-10T17:39:22.435Z,98095.53
2022-09-10T17:42:01.112Z,98100.56
2022-09-10T17:45:13.616Z,98089.84
2022-09-10T17:47:40.205Z,98088.25
2022-09-10T17:50:07.347Z,98108.88
2022-09-10T17:52:33.912Z,98103.97
2022-09-10T17:55:00.527Z,98109.03
2022-09-10T17:57:27.048Z,98097.66
2022-09-10T17:59:54.389Z,98087.91
2022-09-10T18:02:20.948Z,98109.44
2022-09-10T18:04:50.888Z,98084.25
2022-09-10T18:07:17.472Z,98107.88
2022-09-10T18:09:44.116Z,98090.88
2022-09-10T18:12:10.702Z,98111.34
2022-09-10T18:14:38.520Z,98110.22
2022-09-10T18:17:05.161Z,98087.19
2022-09-10T18:19:33.149Z,98091.94
2022-09-10T18:22:01.521Z,98124.03
2022-09-10T18:24:28.437Z,98126.28
2022-09-10T18:26:55.489Z,98110.22
2022-09-10T18:29:26.386Z,98125.66
2022-09-10T18:31:55.869Z,98128.47
2022-09-10T18:34:27.951Z,98129.78
2022-09-10T18:37:00.289Z,98126.97
2022-09-10T18:39:29.787Z,98134.72
2022-09-10T18:41:57.268Z,98127.91
2022-09-10T18:44:27.532Z,98144.94
2022-09-10T18:46:54.672Z,98147.66
2022-09-10T18:49:25.966Z,98155.63
2022-09-10T18:51:54.520Z,98158.00
2022-09-10T18:54:23.154Z,98134.84
2022-09-10T18:56:52.406Z,98156.47
2022-09-10T18:59:24.246Z,98137.22
2022-09-10T19:01:53.047Z,98130.53
2022-09-10T19:04:22.246Z,98167.97
2022-09-10T19:06:49.730Z,98175.31
2022-09-10T19:09:18.545Z,98178.41
2022-09-10T19:11:46.335Z,98163.06
2022-09-10T19:14:19.227Z,98184.50
2022-09-10T19:16:47.619Z,98187.25
2022-09-10T19:19:18.393Z,98188.75
2022-09-10T19:21:50.052Z,98188.56
2022-09-10T19:24:17.504Z,98195.19
2022-09-10T19:26:44.524Z,98179.53
2022-09-10T19:29:18.237Z,98194.78
2022-09-10T19:31:48.699Z,98214.22
2022-09-10T19:34:17.791Z,98201.69
2022-09-10T19:36:44.755Z,98209.94
2022-09-10T19:39:13.978Z,98225.22
2022-09-10T19:41:42.794Z,98221.53
2022-09-10T19:44:12.088Z,98212.06
2022-09-10T19:46:40.931Z,98221.94
2022-09-10T19:49:08.094Z,98237.44
2022-09-10T19:51:36.539Z,98227.31
2022-09-10T19:54:04.020Z,98235.94
2022-09-10T19:56:33.441Z,98234.53
2022-09-10T19:59:02.645Z,98240.72
2022-09-10T20:01:31.832Z,98240.09
2022-09-10T20:04:04.953Z,98240.09
2022-09-10T20:06:33.351Z,98246.47
2022-09-10T20:09:00.219Z,98225.69
2022-09-10T20:11:30.068Z,98250.38
2022-09-10T20:14:02.474Z,98241.34
2022-09-10T20:16:29.384Z,98247.50
2022-09-10T20:18:56.308Z,98228.97
2022-09-10T20:21:29.606Z,98250.56
2022-09-10T20:23:56.432Z,98229.16
2022-09-10T20:26:26.437Z,98250.81
2022-09-10T20:28:59.165Z,98227.06
2022-09-10T20:31:27.838Z,98250.78
2022-09-10T20:33:56.896Z,98223.97
2022-09-10T20:36:27.859Z,98238.84
2022-09-10T20:38:55.973Z,98243.97
2022-09-10T20:41:23.471Z,98237.59
2022-09-10T20:43:54.721Z,98239.44
2022-09-10T20:46:22.682Z,98228.91
2022-09-10T20:48:51.171Z,98219.44
2022-09-10T20:51:19.098Z,98239.63
2022-09-10T20:53:46.497Z,98217.56
2022-09-10T20:56:17.649Z,98243.09
2022-09-10T20:58:45.511Z,98216.91
2022-09-10T21:01:16.602Z,98219.97
2022-09-10T21:03:43.456Z,98245.66
2022-09-10T21:06:11.300Z,98235.94
2022-09-10T21:08:39.377Z,98244.34
2022-09-10T21:11:09.054Z,98247.59
2022-09-10T21:13:37.446Z,98248.97
2022-09-10T21:16:08.406Z,98233.94
2022-09-10T21:18:35.211Z,98254.53
2022-09-10T21:21:09.281Z,98254.06
2022-09-10T21:23:41.999Z,98261.25
2022-09-10T21:26:08.623Z,98237.13
2022-09-10T21:28:35.469Z,98257.94
2022-09-10T21:31:03.664Z,98263.75
2022-09-10T21:33:30.431Z,98256.56
2022-09-10T21:36:09.778Z,98248.34
2022-09-10T21:38:36.354Z,98252.44
2022-09-10T21:41:04.741Z,98244.84
2022-09-10T21:43:35.403Z,98246.00
2022-09-10T21:46:03.386Z,98260.03
2022-09-10T21:48:31.685Z,98266.59
2022-09-10T21:51:05.780Z,98246.75
2022-09-10T21:53:33.777Z,98255.34
2022-09-10T21:56:01.934Z,98238.22
2022-09-10T21:58:33.102Z,98267.50
2022-09-10T22:01:00.177Z,98258.44
2022-09-10T22:03:31.568Z,98266.91
2022-09-10T22:06:13.190Z,98268.09
2022-09-10T22:08:42.785Z,98275.31
2022-09-10T22:11:19.046Z,98274.03
2022-09-10T22:13:52.081Z,98279.81
2022-09-10T22:16:20.554Z,98278.56
2022-09-10T22:18:47.467Z,98270.72
2022-09-10T22:21:14.857Z,98280.34
2022-09-10T22:23:41.709Z,98271.16
2022-09-10T22:26:17.785Z,98269.88
2022-09-10T22:28:44.776Z,98279.75
2022-09-10T22:31:14.025Z,98269.00
2022-09-10T22:33:43.277Z,98285.53
2022-09-10T22:36:12.614Z,98285.34
2022-09-10T22:38:40.878Z,98279.19
2022-09-10T22:41:10.123Z,98262.47
2022-09-10T22:43:38.420Z,98280.41
2022-09-10T22:46:09.312Z,98251.69
2022-09-10T22:48:40.638Z,98284.31
2022-09-10T22:51:11.048Z,98259.75
2022-09-10T22:53:40.212Z,98277.09
2022-09-10T22:56:07.785Z,98284.31
2022-09-10T22:58:34.658Z,98267.31
2022-09-10T23:01:09.931Z,98276.16
2022-09-10T23:03:38.475Z,98275.06
2022-09-10T23:06:14.875Z,98285.81
2022-09-10T23:08:46.744Z,98276.97
2022-09-10T23:11:22.606Z,98242.75
2022-09-10T23:13:52.771Z,98281.91
2022-09-10T23:16:22.375Z,98287.88
2022-09-10T23:18:51.323Z,98293.41
2022-09-10T23:21:19.179Z,98284.53
2022-09-10T23:23:48.000Z,98284.69
2022-09-10T23:26:15.721Z,98259.94
2022-09-10T23:28:42.457Z,98261.19
2022-09-10T23:31:13.573Z,98282.22
2022-09-10T23:33:45.311Z,98274.34
2022-09-10T23:36:13.489Z,98257.53
2022-09-10T23:38:43.878Z,98286.16
2022-09-10T23:41:12.149Z,98286.06
2022-09-10T23:43:40.393Z,98290.13
2022-09-10T23:46:08.919Z,98283.69
2022-09-10T23:48:36.310Z,98288.91
2022-09-10T23:51:06.845Z,98271.00
2022-09-10T23:53:33.645Z,98291.22
2022-09-10T23:56:04.926Z,98291.41
2022-09-10T23:58:31.851Z,98284.41
